Terminal Aerodrome Forecast
Issued by NWS Blacksburg, VA

Current Version | Previous Version | Graphics & Text | Print | Product List | Glossary On
Versions: 1 2 3 4 5 6 7 8 9 10 11 12 13 14 15 16 17 18 19 20 21 22 23 24 25 26 27 28 29 30 31 32 33 34 35 36 37 38 39
000
FTUS41 KRNK 222334
TAFBLF
TAF
KBLF 222334Z 2300/2324 17004KT P6SM BKN035
      TEMPO 2305/2309 3SM BR SCT005 BKN015
     FM230900 VRB03KT 1SM BR OVC005
     FM231500 VRB03KT P6SM BKN025
     FM231800 20004KT P6SM VCSH BKN040=

USA.gov is the U.S. government's official web portal to all federal, state and local government web resources and services.